Time;durP1;ratioP1;P1;durP2;ratioP2;P2;SDS_P1;SDS_P2;PMS_P1;PMS_P2;Temp;Humidity;BMP_temperature;BMP_pressure;BME280_temperature;BME280_humidity;BME280_pressure;Samples;Min_cycle;Max_cycle;Signal;HPM_P1;HPM_P2
2023/05/19 00:00:40;;;;;;;;;;;10.70;99.90;;;;;;5038258;28;19956;-83
2023/05/19 00:03:20;;;;;;;;;;;10.60;99.90;;;;;;5038433;28;19940;-83
2023/05/19 00:05:47;;;;;;;;;;;10.70;99.90;;;;;;5039474;28;19894;-81
2023/05/19 00:08:37;;;;;;;;;;;10.70;99.90;;;;;;5030389;28;19906;-80
2023/05/19 00:11:02;;;;;;;;;;;10.70;99.90;;;;;;5015599;28;19924;-78
2023/05/19 00:13:34;;;;;;;;;;;10.70;99.90;;;;;;5009113;28;19925;-81
2023/05/19 00:16:00;;;;;;;;;;;10.70;99.90;;;;;;5025516;28;20333;-78
2023/05/19 00:18:28;;;;;;;;;;;10.70;99.90;;;;;;4998838;28;19906;-78
2023/05/19 00:20:54;;;;;;;;;;;10.70;99.90;;;;;;5001553;28;19909;-81
2023/05/19 00:23:37;;;;;;;;;;;10.80;99.90;;;;;;5013911;28;19910;-80
2023/05/19 00:26:05;;;;;;;;;;;11.30;99.90;;;;;;5007399;28;19948;-81
2023/05/19 00:28:30;;;;;;;;;;;10.60;99.90;;;;;;5038450;28;19902;-80
2023/05/19 00:30:56;;;;;;;;;;;10.60;99.90;;;;;;5022547;28;19936;-80
2023/05/19 00:35:57;;;;;;;;;;;10.50;99.90;;;;;;5279196;23;19907;-81
2023/05/19 00:38:22;;;;;;;;;;;10.50;99.90;;;;;;4960142;28;19914;-81
2023/05/19 00:40:48;;;;;;;;;;;10.50;99.90;;;;;;4963436;28;19917;-81
2023/05/19 00:43:13;;;;;;;;;;;10.50;99.90;;;;;;5134539;23;19922;-81
2023/05/19 00:45:39;;;;;;;;;;;10.50;99.90;;;;;;4992640;28;20402;-78
2023/05/19 00:48:05;;;;;;;;;;;10.50;99.90;;;;;;4973846;28;19957;-78
2023/05/19 00:50:30;;;;;;;;;;;10.50;99.90;;;;;;4991828;28;20306;-78
2023/05/19 00:52:56;;;;;;;;;;;10.40;99.90;;;;;;4991444;28;19987;-78
2023/05/19 00:55:25;;;;;;;;;;;10.40;99.90;;;;;;4991178;28;20044;-77
2023/05/19 00:57:51;;;;;;;;;;;10.30;99.90;;;;;;4973546;28;19964;-79
2023/05/19 01:00:17;;;;;;;;;;;10.30;99.90;;;;;;4991370;28;19910;-78
2023/05/19 01:02:42;;;;;;;;;;;10.20;99.90;;;;;;4991129;28;20297;-78
2023/05/19 01:05:09;;;;;;;;;;;10.20;99.90;;;;;;4973802;28;19951;-77
2023/05/19 01:07:35;;;;;;;;;;;10.20;99.90;;;;;;4973374;28;19921;-78
2023/05/19 01:10:01;;;;;;;;;;;10.20;99.90;;;;;;4973838;28;20070;-78
2023/05/19 01:12:27;;;;;;;;;;;10.20;99.90;;;;;;4973315;28;20066;-78
2023/05/19 01:14:52;;;;;;;;;;;9.90;99.90;;;;;;4973910;28;19964;-78
2023/05/19 01:17:28;;;;;;;;;;;10.20;99.90;;;;;;4973623;28;20061;-78
2023/05/19 01:19:55;;;;;;;;;;;10.20;99.90;;;;;;4977013;28;19910;-79
2023/05/19 01:22:21;;;;;;;;;;;10.20;99.90;;;;;;4977397;28;19952;-78
2023/05/19 01:25:05;;;;;;;;;;;10.20;99.90;;;;;;4977940;28;19950;-78
2023/05/19 01:27:50;;;;;;;;;;;10.10;99.90;;;;;;4994931;28;19999;-77
2023/05/19 01:30:26;;;;;;;;;;;10.20;99.90;;;;;;4977606;28;19913;-77
2023/05/19 01:32:53;;;;;;;;;;;10.20;99.90;;;;;;4995108;28;19913;-78
2023/05/19 01:35:21;;;;;;;;;;;10.20;99.90;;;;;;4994989;28;19913;-79
2023/05/19 01:37:47;;;;;;;;;;;10.20;99.90;;;;;;4994936;28;19952;-79
2023/05/19 01:40:13;;;;;;;;;;;10.10;99.90;;;;;;4994865;28;19906;-77
2023/05/19 01:42:39;;;;;;;;;;;10.00;99.90;;;;;;4977165;28;20424;-79
2023/05/19 01:45:05;;;;;;;;;;;10.00;99.90;;;;;;4995270;28;19917;-78
2023/05/19 01:47:37;;;;;;;;;;;10.00;99.90;;;;;;4977159;28;19917;-78
2023/05/19 01:50:02;;;;;;;;;;;10.00;99.90;;;;;;4977362;28;19905;-78
2023/05/19 01:52:28;;;;;;;;;;;10.00;99.90;;;;;;4995025;28;19906;-77
2023/05/19 01:54:53;;;;;;;;;;;10.00;99.90;;;;;;4977367;28;19955;-79
2023/05/19 01:57:26;;;;;;;;;;;10.00;99.90;;;;;;4994586;28;20395;-78
2023/05/19 01:59:54;;;;;;;;;;;10.00;99.90;;;;;;4977299;28;19910;-77
2023/05/19 02:02:31;;;;;;;;;;;10.00;99.90;;;;;;4977603;28;20108;-78
2023/05/19 02:05:00;;;;;;;;;;;10.00;99.90;;;;;;4977567;28;19906;-78
2023/05/19 02:07:31;;;;;;;;;;;10.00;99.90;;;;;;4977670;28;19921;-78
2023/05/19 02:09:58;;;;;;;;;;;9.90;99.90;;;;;;4977650;28;20034;-78
2023/05/19 02:12:24;;;;;;;;;;;9.90;99.90;;;;;;4994313;28;19912;-79
2023/05/19 02:14:49;;;;;;;;;;;9.90;99.90;;;;;;4976690;28;20286;-77
2023/05/19 02:17:16;;;;;;;;;;;9.90;99.90;;;;;;4976596;28;19968;-77
2023/05/19 02:19:42;;;;;;;;;;;9.90;99.90;;;;;;4976158;28;19918;-78
2023/05/19 02:22:08;;;;;;;;;;;9.90;99.90;;;;;;4994686;28;19988;-78
2023/05/19 02:24:33;;;;;;;;;;;9.90;99.90;;;;;;4978013;28;19940;-78
2023/05/19 02:26:59;;;;;;;;;;;9.90;99.90;;;;;;4977441;28;20033;-77
2023/05/19 02:29:24;;;;;;;;;;;9.80;99.90;;;;;;4976796;28;19905;-77
2023/05/19 02:31:50;;;;;;;;;;;9.80;99.90;;;;;;4976180;28;20337;-77
2023/05/19 02:34:15;;;;;;;;;;;9.80;99.90;;;;;;4993149;28;20350;-78
2023/05/19 02:36:44;;;;;;;;;;;9.80;99.90;;;;;;4993810;28;19965;-79
2023/05/19 02:39:10;;;;;;;;;;;9.80;99.90;;;;;;4993801;28;19953;-77
2023/05/19 02:41:36;;;;;;;;;;;9.70;99.90;;;;;;4975985;28;19906;-78
2023/05/19 02:44:01;;;;;;;;;;;9.70;99.90;;;;;;4993388;28;19926;-79
2023/05/19 02:46:27;;;;;;;;;;;9.70;99.90;;;;;;4993533;28;19910;-79
2023/05/19 02:48:52;;;;;;;;;;;9.80;99.90;;;;;;4975826;28;20443;-78
2023/05/19 02:51:18;;;;;;;;;;;9.80;99.90;;;;;;4975765;28;20329;-78
2023/05/19 02:53:43;;;;;;;;;;;9.80;99.90;;;;;;4975817;28;20346;-78
2023/05/19 02:56:09;;;;;;;;;;;9.70;99.90;;;;;;4975653;28;20415;-78
2023/05/19 02:58:34;;;;;;;;;;;9.70;99.90;;;;;;4975580;28;20385;-79
2023/05/19 03:01:00;;;;;;;;;;;9.70;99.90;;;;;;4975539;28;19909;-78
2023/05/19 03:03:25;;;;;;;;;;;9.60;99.90;;;;;;4975743;28;19912;-78
2023/05/19 03:05:52;;;;;;;;;;;9.70;99.90;;;;;;4993367;28;20401;-78
2023/05/19 03:08:18;;;;;;;;;;;9.70;99.90;;;;;;4993319;28;20366;-77
2023/05/19 03:10:47;;;;;;;;;;;9.60;99.90;;;;;;4992806;28;20417;-77
2023/05/19 03:13:12;;;;;;;;;;;9.70;99.90;;;;;;4975509;28;19906;-79
2023/05/19 03:15:38;;;;;;;;;;;9.70;99.90;;;;;;4975184;28;19912;-78
2023/05/19 03:18:04;;;;;;;;;;;9.70;99.90;;;;;;4975618;28;19937;-79
2023/05/19 03:20:29;;;;;;;;;;;9.70;99.90;;;;;;4975498;28;19905;-78
2023/05/19 03:22:55;;;;;;;;;;;9.60;99.90;;;;;;4975318;28;20418;-77
2023/05/19 03:25:21;;;;;;;;;;;9.60;99.90;;;;;;4992543;28;20301;-78
2023/05/19 03:27:46;;;;;;;;;;;9.60;99.90;;;;;;4993033;28;19917;-78
2023/05/19 03:30:12;;;;;;;;;;;9.60;99.90;;;;;;4993205;28;19913;-77
2023/05/19 03:32:37;;;;;;;;;;;9.60;99.90;;;;;;4975225;28;19905;-78
2023/05/19 03:35:04;;;;;;;;;;;9.60;99.90;;;;;;4975551;28;20416;-77
2023/05/19 03:37:29;;;;;;;;;;;9.60;99.90;;;;;;4975745;28;19906;-79
2023/05/19 03:39:56;;;;;;;;;;;9.60;99.90;;;;;;4992466;28;20425;-77
2023/05/19 03:42:21;;;;;;;;;;;9.70;99.90;;;;;;4992635;28;19910;-78
2023/05/19 03:44:47;;;;;;;;;;;9.60;99.90;;;;;;4974973;28;19918;-78
2023/05/19 03:47:12;;;;;;;;;;;9.70;99.90;;;;;;4975385;28;20414;-79
2023/05/19 03:49:38;;;;;;;;;;;9.70;99.90;;;;;;4975041;28;19906;-78
2023/05/19 03:52:03;;;;;;;;;;;9.70;99.90;;;;;;4975269;28;19905;-79
2023/05/19 03:54:29;;;;;;;;;;;9.80;99.90;;;;;;4975356;28;20425;-78
2023/05/19 03:56:55;;;;;;;;;;;9.80;99.90;;;;;;4992125;28;19906;-78
2023/05/19 03:59:22;;;;;;;;;;;9.80;99.90;;;;;;4992643;28;19906;-77
2023/05/19 04:01:48;;;;;;;;;;;9.90;99.90;;;;;;4992680;28;19986;-79
2023/05/19 04:04:13;;;;;;;;;;;9.80;99.90;;;;;;4992435;28;19938;-77
2023/05/19 04:06:39;;;;;;;;;;;9.90;99.90;;;;;;4992391;28;19905;-79
2023/05/19 04:09:10;;;;;;;;;;;9.90;99.90;;;;;;4974621;28;19967;-78
2023/05/19 04:11:36;;;;;;;;;;;9.90;99.90;;;;;;4991736;28;19928;-78
2023/05/19 04:14:01;;;;;;;;;;;9.90;99.90;;;;;;4992245;28;20409;-78
2023/05/19 04:16:27;;;;;;;;;;;10.00;99.90;;;;;;4974920;28;19906;-79
2023/05/19 04:18:52;;;;;;;;;;;10.00;99.90;;;;;;4992095;28;19948;-79
2023/05/19 04:21:20;;;;;;;;;;;10.00;99.90;;;;;;4974705;28;19953;-78
2023/05/19 04:23:45;;;;;;;;;;;10.00;99.90;;;;;;4974487;28;19923;-78
2023/05/19 04:26:13;;;;;;;;;;;10.00;99.90;;;;;;4991606;28;19999;-78
2023/05/19 04:28:41;;;;;;;;;;;10.00;99.90;;;;;;4992213;28;19917;-79
2023/05/19 04:31:09;;;;;;;;;;;10.00;99.90;;;;;;4992017;28;19906;-78
2023/05/19 04:33:38;;;;;;;;;;;10.00;99.90;;;;;;4975044;28;20008;-79
2023/05/19 04:36:07;;;;;;;;;;;10.00;99.90;;;;;;4974102;28;20267;-78
2023/05/19 04:38:36;;;;;;;;;;;10.00;99.90;;;;;;4977496;28;20374;-78
2023/05/19 04:41:02;;;;;;;;;;;10.00;99.90;;;;;;4972420;28;19968;-78
2023/05/19 04:43:28;;;;;;;;;;;9.90;99.90;;;;;;4978954;28;19951;-77
2023/05/19 04:45:54;;;;;;;;;;;10.00;99.90;;;;;;5001291;28;19901;-78
2023/05/19 04:48:22;;;;;;;;;;;10.00;99.90;;;;;;4984062;28;19909;-79
2023/05/19 04:50:48;;;;;;;;;;;10.10;99.90;;;;;;4984118;28;19924;-78
2023/05/19 04:53:14;;;;;;;;;;;10.10;99.90;;;;;;4983576;28;20197;-77
2023/05/19 04:55:39;;;;;;;;;;;10.20;99.90;;;;;;4984136;28;19940;-79
2023/05/19 04:58:05;;;;;;;;;;;10.30;99.90;;;;;;4985411;28;19998;-78
2023/05/19 05:00:31;;;;;;;;;;;10.20;99.90;;;;;;4991922;28;19914;-78
2023/05/19 05:02:57;;;;;;;;;;;10.10;99.90;;;;;;4973928;28;19906;-78
2023/05/19 05:05:23;;;;;;;;;;;10.10;99.90;;;;;;4991553;28;19997;-78
2023/05/19 05:07:48;;;;;;;;;;;10.20;99.90;;;;;;4991287;28;19936;-77
2023/05/19 05:10:14;;;;;;;;;;;10.20;99.90;;;;;;4973523;28;20366;-77
2023/05/19 05:12:39;;;;;;;;;;;10.20;99.90;;;;;;4973941;28;20326;-78
2023/05/19 05:15:07;;;;;;;;;;;10.20;99.90;;;;;;4973793;28;19952;-78
2023/05/19 05:17:34;;;;;;;;;;;10.20;99.90;;;;;;4991104;28;19909;-78
2023/05/19 05:20:00;;;;;;;;;;;10.20;99.90;;;;;;4991334;28;19906;-79
2023/05/19 05:22:26;;;;;;;;;;;10.20;99.90;;;;;;4991607;28;19905;-78
2023/05/19 05:24:51;;;;;;;;;;;10.20;99.90;;;;;;4973915;28;19914;-78
2023/05/19 05:27:17;;;;;;;;;;;10.40;99.90;;;;;;4991965;28;20362;-78
2023/05/19 05:29:43;;;;;;;;;;;10.30;99.90;;;;;;4973751;28;19906;-78
2023/05/19 05:32:08;;;;;;;;;;;10.40;99.90;;;;;;4973608;28;19912;-78
2023/05/19 05:34:36;;;;;;;;;;;10.40;99.90;;;;;;4973389;28;20019;-77
2023/05/19 05:37:02;;;;;;;;;;;10.40;99.90;;;;;;4991242;28;19906;-78
2023/05/19 05:39:27;;;;;;;;;;;10.40;99.90;;;;;;4990961;28;20286;-78
2023/05/19 05:41:53;;;;;;;;;;;10.40;99.90;;;;;;4990941;28;19953;-77
2023/05/19 05:44:18;;;;;;;;;;;10.40;99.90;;;;;;4990626;28;19918;-78
2023/05/19 05:46:44;;;;;;;;;;;10.60;99.90;;;;;;4973559;28;19912;-78
2023/05/19 05:49:11;;;;;;;;;;;10.60;99.90;;;;;;4973609;28;20330;-78
2023/05/19 05:51:37;;;;;;;;;;;10.70;99.90;;;;;;4973072;28;20363;-78
2023/05/19 05:54:04;;;;;;;;;;;10.80;99.90;;;;;;4990703;28;19905;-78
2023/05/19 05:56:32;;;;;;;;;;;11.00;99.90;;;;;;4990469;28;20309;-78
2023/05/19 05:58:58;;;;;;;;;;;11.00;99.90;;;;;;4973374;28;19922;-77
2023/05/19 06:01:23;;;;;;;;;;;11.10;99.90;;;;;;4973727;28;19914;-78
2023/05/19 06:03:49;;;;;;;;;;;10.80;99.90;;;;;;4993179;28;20197;-78
2023/05/19 06:06:15;;;;;;;;;;;10.60;99.90;;;;;;4997503;28;19909;-78
2023/05/19 06:08:40;;;;;;;;;;;10.60;99.90;;;;;;5005046;28;19925;-77
2023/05/19 06:11:08;;;;;;;;;;;10.80;99.90;;;;;;5005063;28;19918;-78
2023/05/19 06:13:34;;;;;;;;;;;10.70;99.90;;;;;;4988061;28;19911;-78
2023/05/19 06:16:00;;;;;;;;;;;10.70;99.90;;;;;;4996866;28;19910;-78
2023/05/19 06:18:25;;;;;;;;;;;10.90;99.90;;;;;;4979621;28;19910;-78
2023/05/19 06:20:51;;;;;;;;;;;11.00;99.90;;;;;;4995906;28;19905;-77
2023/05/19 06:23:16;;;;;;;;;;;10.90;99.90;;;;;;5000511;28;20273;-76
2023/05/19 06:25:42;;;;;;;;;;;10.90;99.90;;;;;;4996050;28;19906;-77
2023/05/19 06:28:07;;;;;;;;;;;10.90;99.90;;;;;;4994188;28;20412;-79
2023/05/19 06:30:33;;;;;;;;;;;11.30;99.90;;;;;;4994553;28;19906;-75
2023/05/19 06:32:59;;;;;;;;;;;11.20;99.90;;;;;;4994146;28;19913;-76
2023/05/19 06:35:24;;;;;;;;;;;11.30;99.90;;;;;;4976828;28;19905;-76
2023/05/19 06:37:51;;;;;;;;;;;11.50;99.90;;;;;;4993598;28;19910;-78
2023/05/19 06:40:17;;;;;;;;;;;11.70;99.90;;;;;;4977147;28;19997;-77
2023/05/19 06:42:43;;;;;;;;;;;11.80;99.90;;;;;;4978245;28;19964;-77
2023/05/19 06:45:08;;;;;;;;;;;11.70;99.90;;;;;;4993742;28;19949;-78
2023/05/19 06:47:34;;;;;;;;;;;11.70;99.90;;;;;;4977102;28;19920;-79
2023/05/19 06:49:59;;;;;;;;;;;12.30;99.90;;;;;;4993699;28;19909;-78
2023/05/19 06:52:25;;;;;;;;;;;12.30;99.90;;;;;;4994890;28;19906;-78
2023/05/19 06:54:50;;;;;;;;;;;12.50;99.90;;;;;;4994175;28;19963;-78
2023/05/19 06:57:16;;;;;;;;;;;12.90;99.90;;;;;;4995239;28;19906;-79
2023/05/19 06:59:42;;;;;;;;;;;13.10;99.90;;;;;;4994565;28;19916;-77
2023/05/19 07:02:08;;;;;;;;;;;13.20;99.90;;;;;;4978036;28;19986;-79
2023/05/19 07:04:34;;;;;;;;;;;13.20;99.90;;;;;;4997445;28;19949;-79
2023/05/19 07:06:59;;;;;;;;;;;13.90;99.90;;;;;;4995468;28;19909;-79
2023/05/19 07:09:25;;;;;;;;;;;14.40;99.90;;;;;;4995279;28;19914;-78
2023/05/19 07:11:50;;;;;;;;;;;14.70;99.00;;;;;;4994673;28;19913;-79
2023/05/19 07:14:16;;;;;;;;;;;14.70;98.60;;;;;;4995807;28;20004;-78
2023/05/19 07:16:41;;;;;;;;;;;15.10;96.30;;;;;;4978817;28;20388;-79
2023/05/19 07:19:07;;;;;;;;;;;14.90;96.40;;;;;;4977524;28;19905;-78
2023/05/19 07:21:33;;;;;;;;;;;14.80;95.20;;;;;;4978324;28;19932;-78
2023/05/19 07:23:58;;;;;;;;;;;14.80;96.00;;;;;;4977916;28;20022;-79
2023/05/19 07:26:24;;;;;;;;;;;14.80;97.10;;;;;;4980360;28;20388;-80
2023/05/19 07:28:50;;;;;;;;;;;14.80;96.00;;;;;;4985372;28;19918;-79
2023/05/19 07:31:16;;;;;;;;;;;15.00;96.70;;;;;;4983586;28;20197;-78
2023/05/19 07:33:41;;;;;;;;;;;15.30;95.40;;;;;;4980346;28;19905;-78
2023/05/19 07:36:07;;;;;;;;;;;15.10;95.40;;;;;;4997493;28;19905;-78
2023/05/19 07:38:33;;;;;;;;;;;15.40;94.00;;;;;;4985679;28;19913;-79
2023/05/19 07:40:59;;;;;;;;;;;15.80;95.20;;;;;;4985090;28;19910;-80
2023/05/19 07:43:25;;;;;;;;;;;16.00;93.70;;;;;;5010523;28;19922;-80
2023/05/19 07:45:52;;;;;;;;;;;15.60;92.00;;;;;;5009438;28;19902;-80
2023/05/19 07:48:21;;;;;;;;;;;15.90;92.00;;;;;;4982483;28;20109;-81
2023/05/19 07:50:47;;;;;;;;;;;16.40;89.90;;;;;;4983658;28;19968;-80
2023/05/19 07:53:12;;;;;;;;;;;16.50;89.40;;;;;;5005601;28;20247;-81
2023/05/19 07:55:38;;;;;;;;;;;16.80;91.30;;;;;;4988730;28;19912;-79
2023/05/19 07:58:06;;;;;;;;;;;16.90;83.40;;;;;;4998123;28;20259;-80
2023/05/19 08:00:33;;;;;;;;;;;17.10;82.20;;;;;;4993461;28;19910;-81
2023/05/19 08:02:58;;;;;;;;;;;16.90;81.70;;;;;;5000197;28;19894;-80
2023/05/19 08:05:28;;;;;;;;;;;16.90;80.70;;;;;;4989493;28;20421;-79
2023/05/19 08:07:55;;;;;;;;;;;17.00;84.40;;;;;;4978479;28;20005;-80
2023/05/19 08:10:20;;;;;;;;;;;17.10;80.20;;;;;;4982957;28;20532;-78
2023/05/19 08:12:46;;;;;;;;;;;16.40;80.00;;;;;;4972702;28;19988;-78
2023/05/19 08:15:11;;;;;;;;;;;16.80;80.40;;;;;;4976929;28;19909;-78
2023/05/19 08:17:37;;;;;;;;;;;16.60;82.50;;;;;;4975714;28;20366;-78
2023/05/19 08:20:05;;;;;;;;;;;16.90;83.50;;;;;;4992961;28;19968;-79
2023/05/19 08:22:30;;;;;;;;;;;17.00;80.20;;;;;;4974814;28;19913;-79
2023/05/19 08:24:56;;;;;;;;;;;16.80;80.10;;;;;;4988292;28;19993;-79
2023/05/19 08:27:22;;;;;;;;;;;17.30;79.80;;;;;;4975709;28;20377;-79
2023/05/19 08:29:47;;;;;;;;;;;15.60;78.70;;;;;;4975225;28;19909;-80
2023/05/19 08:32:13;;;;;;;;;;;18.10;76.50;;;;;;4974624;28;20326;-80
2023/05/19 08:34:40;;;;;;;;;;;17.80;75.60;;;;;;4991671;28;19906;-78
2023/05/19 08:37:06;;;;;;;;;;;17.50;76.50;;;;;;4975263;28;19905;-79
2023/05/19 08:39:33;;;;;;;;;;;17.20;76.70;;;;;;4975183;28;19910;-78
2023/05/19 08:41:58;;;;;;;;;;;17.60;77.30;;;;;;4974991;28;19968;-78
2023/05/19 08:44:24;;;;;;;;;;;17.50;76.60;;;;;;4975522;28;19988;-79
2023/05/19 08:46:51;;;;;;;;;;;17.20;76.40;;;;;;4974407;28;20398;-78
2023/05/19 08:49:19;;;;;;;;;;;17.20;77.10;;;;;;4992619;28;19941;-79
2023/05/19 08:51:49;;;;;;;;;;;16.20;79.90;;;;;;4976543;28;19917;-79
2023/05/19 08:54:16;;;;;;;;;;;15.80;81.90;;;;;;4993646;28;19940;-78
2023/05/19 08:56:46;;;;;;;;;;;15.80;84.80;;;;;;4978241;28;19921;-79
2023/05/19 08:59:14;;;;;;;;;;;16.40;81.50;;;;;;4992883;28;19906;-77
2023/05/19 09:01:43;;;;;;;;;;;16.40;80.80;;;;;;4992702;28;19933;-79
2023/05/19 09:04:09;;;;;;;;;;;16.50;79.50;;;;;;4980178;28;19905;-77
2023/05/19 09:06:34;;;;;;;;;;;16.00;78.70;;;;;;4995082;28;19906;-78
2023/05/19 09:09:00;;;;;;;;;;;15.90;79.60;;;;;;4995553;28;19953;-80
2023/05/19 09:11:26;;;;;;;;;;;16.20;81.40;;;;;;4993032;28;20398;-78
2023/05/19 09:13:52;;;;;;;;;;;16.40;80.20;;;;;;4978048;28;19995;-80
2023/05/19 09:16:18;;;;;;;;;;;17.10;82.70;;;;;;4979021;28;19909;-78
2023/05/19 09:18:56;;;;;;;;;;;17.20;80.30;;;;;;4977926;28;19913;-80
2023/05/19 09:21:40;;;;;;;;;;;17.20;79.80;;;;;;4977033;28;19906;-78
2023/05/19 09:24:07;;;;;;;;;;;17.10;80.90;;;;;;4981979;28;19909;-81
2023/05/19 09:26:37;;;;;;;;;;;17.10;78.60;;;;;;4988533;28;19905;-80
2023/05/19 09:29:09;;;;;;;;;;;17.30;80.50;;;;;;4984708;28;19914;-81
2023/05/19 09:31:35;;;;;;;;;;;17.00;77.60;;;;;;4986596;28;19997;-81
2023/05/19 09:34:12;;;;;;;;;;;16.90;79.80;;;;;;4995400;28;19909;-81
2023/05/19 09:36:38;;;;;;;;;;;16.30;81.10;;;;;;5005662;28;19906;-78
2023/05/19 09:39:11;;;;;;;;;;;16.20;81.70;;;;;;4974772;28;19905;-78
2023/05/19 09:41:37;;;;;;;;;;;16.30;86.10;;;;;;4985949;28;19906;-79
2023/05/19 09:44:02;;;;;;;;;;;16.50;83.00;;;;;;4982495;28;19959;-78
2023/05/19 09:46:52;;;;;;;;;;;17.00;88.50;;;;;;4984274;28;19916;-80
2023/05/19 09:49:19;;;;;;;;;;;17.80;80.40;;;;;;4986628;28;19924;-79
2023/05/19 09:51:45;;;;;;;;;;;17.30;80.00;;;;;;4987375;28;19906;-79
2023/05/19 09:54:13;;;;;;;;;;;16.50;79.40;;;;;;4987447;28;19924;-79
2023/05/19 09:56:39;;;;;;;;;;;16.40;81.50;;;;;;4979988;28;19905;-79
2023/05/19 09:59:06;;;;;;;;;;;16.80;79.40;;;;;;4978458;28;20414;-78
2023/05/19 10:01:36;;;;;;;;;;;17.30;81.30;;;;;;5012226;28;19905;-79
2023/05/19 10:04:04;;;;;;;;;;;17.30;76.90;;;;;;4997895;28;19925;-80
2023/05/19 10:06:52;;;;;;;;;;;16.50;78.30;;;;;;5012615;28;20062;-78
2023/05/19 10:09:34;;;;;;;;;;;16.50;79.60;;;;;;4980247;28;19981;-77
2023/05/19 10:12:01;;;;;;;;;;;16.40;78.90;;;;;;4981554;28;19916;-79
2023/05/19 10:14:27;;;;;;;;;;;17.20;78.20;;;;;;5005325;28;19909;-80
2023/05/19 10:16:56;;;;;;;;;;;16.90;78.30;;;;;;4985340;28;19949;-80
2023/05/19 10:19:22;;;;;;;;;;;16.70;78.50;;;;;;4994007;28;19902;-80
2023/05/19 10:21:55;;;;;;;;;;;16.80;79.50;;;;;;5012624;28;20004;-78
2023/05/19 10:24:23;;;;;;;;;;;17.00;77.90;;;;;;5029844;28;19906;-78
2023/05/19 10:27:07;;;;;;;;;;;17.10;77.40;;;;;;5007198;28;19905;-79
2023/05/19 10:29:35;;;;;;;;;;;17.40;78.50;;;;;;5014702;28;19921;-81
2023/05/19 10:32:03;;;;;;;;;;;17.70;76.10;;;;;;5002340;28;19910;-78
2023/05/19 10:34:36;;;;;;;;;;;17.70;75.50;;;;;;5003049;28;19905;-81
2023/05/19 10:37:11;;;;;;;;;;;17.70;77.20;;;;;;5015998;28;21079;-79
2023/05/19 10:39:40;;;;;;;;;;;17.80;75.70;;;;;;5008611;28;19905;-78
2023/05/19 10:42:12;;;;;;;;;;;17.80;75.90;;;;;;4995615;28;19953;-77
2023/05/19 10:44:57;;;;;;;;;;;17.80;75.00;;;;;;4975758;28;20355;-78
2023/05/19 10:47:23;;;;;;;;;;;18.30;73.50;;;;;;5008037;28;20468;-78
2023/05/19 10:49:50;;;;;;;;;;;19.50;69.40;;;;;;4993346;28;19905;-78
2023/05/19 10:52:20;;;;;;;;;;;19.70;69.20;;;;;;4995866;28;19916;-78
2023/05/19 10:54:46;;;;;;;;;;;19.20;67.90;;;;;;4997130;28;19909;-79
2023/05/19 10:57:15;;;;;;;;;;;19.00;69.60;;;;;;4997977;28;20000;-79
2023/05/19 10:59:43;;;;;;;;;;;19.10;72.30;;;;;;5012520;28;20042;-78
2023/05/19 11:02:09;;;;;;;;;;;19.10;68.90;;;;;;5012424;28;20394;-78
2023/05/19 11:04:46;;;;;;;;;;;18.90;69.10;;;;;;5004998;28;20154;-82
2023/05/19 11:07:23;;;;;;;;;;;18.90;69.30;;;;;;5010895;28;19914;-78
2023/05/19 11:09:51;;;;;;;;;;;18.60;70.30;;;;;;4996379;28;19914;-78
2023/05/19 11:12:23;;;;;;;;;;;18.10;72.10;;;;;;5009690;28;19917;-77
2023/05/19 11:14:53;;;;;;;;;;;17.90;73.20;;;;;;4985189;28;19944;-78
2023/05/19 11:17:22;;;;;;;;;;;17.50;75.10;;;;;;5000953;28;20271;-79
2023/05/19 11:19:52;;;;;;;;;;;17.60;73.60;;;;;;4980931;28;20070;-79
2023/05/19 11:22:26;;;;;;;;;;;17.60;75.00;;;;;;5001294;28;19906;-80
2023/05/19 11:24:55;;;;;;;;;;;17.60;74.10;;;;;;4982284;28;19905;-80
2023/05/19 11:27:24;;;;;;;;;;;17.40;73.00;;;;;;4978267;28;19902;-79
2023/05/19 11:29:52;;;;;;;;;;;17.30;73.90;;;;;;4974434;28;19906;-78
2023/05/19 11:32:24;;;;;;;;;;;17.30;76.30;;;;;;4963259;28;19909;-79
2023/05/19 11:34:50;;;;;;;;;;;17.30;75.30;;;;;;4966579;28;20184;-78
2023/05/19 11:37:15;;;;;;;;;;;17.70;74.90;;;;;;4965019;28;20165;-78
2023/05/19 11:39:42;;;;;;;;;;;15.80;73.60;;;;;;4967263;28;20268;-80
2023/05/19 11:42:09;;;;;;;;;;;17.80;74.30;;;;;;4969259;28;19902;-78
2023/05/19 11:44:35;;;;;;;;;;;17.70;75.70;;;;;;4964279;28;19960;-77
2023/05/19 11:47:00;;;;;;;;;;;18.00;73.30;;;;;;4984103;28;19906;-78
2023/05/19 11:49:27;;;;;;;;;;;18.10;75.10;;;;;;4968440;28;20126;-77
2023/05/19 11:51:52;;;;;;;;;;;18.00;71.80;;;;;;4978681;28;19909;-78
2023/05/19 11:54:18;;;;;;;;;;;18.00;72.90;;;;;;4976827;28;19906;-77
2023/05/19 11:56:44;;;;;;;;;;;19.00;74.00;;;;;;4997286;28;19906;-78
2023/05/19 11:59:10;;;;;;;;;;;17.80;73.00;;;;;;4979434;28;20409;-79
2023/05/19 12:01:36;;;;;;;;;;;18.20;74.90;;;;;;4992002;28;19922;-79
2023/05/19 12:04:01;;;;;;;;;;;18.50;71.30;;;;;;4974342;28;19905;-77
2023/05/19 12:06:28;;;;;;;;;;;18.30;71.50;;;;;;4980929;28;19969;-78
2023/05/19 12:08:54;;;;;;;;;;;18.20;72.90;;;;;;4984955;28;20111;-77
2023/05/19 12:11:19;;;;;;;;;;;17.90;71.90;;;;;;4983900;28;20161;-78
2023/05/19 12:13:46;;;;;;;;;;;17.70;75.40;;;;;;5001010;28;19902;-78
2023/05/19 12:16:11;;;;;;;;;;;17.50;75.60;;;;;;4978755;28;19965;-78
2023/05/19 12:18:37;;;;;;;;;;;17.40;77.20;;;;;;4983743;28;19913;-78
2023/05/19 12:21:03;;;;;;;;;;;17.20;77.90;;;;;;5001679;28;19909;-78
2023/05/19 12:23:31;;;;;;;;;;;17.20;77.80;;;;;;5000420;28;19901;-78
2023/05/19 12:26:00;;;;;;;;;;;17.30;78.00;;;;;;4973058;28;19910;-77
2023/05/19 12:28:28;;;;;;;;;;;17.40;78.10;;;;;;4976643;28;19913;-79
2023/05/19 12:30:57;;;;;;;;;;;17.50;76.10;;;;;;4973428;28;20281;-79
2023/05/19 12:33:23;;;;;;;;;;;17.60;77.50;;;;;;4992382;28;19931;-77
2023/05/19 12:35:49;;;;;;;;;;;17.20;77.30;;;;;;4991506;28;19960;-78
2023/05/19 12:38:14;;;;;;;;;;;17.10;79.40;;;;;;4990728;28;19910;-78
2023/05/19 12:40:40;;;;;;;;;;;17.20;79.70;;;;;;4989285;28;19949;-78
2023/05/19 12:43:08;;;;;;;;;;;17.00;77.30;;;;;;4988960;28;20427;-78
2023/05/19 12:45:34;;;;;;;;;;;16.70;80.20;;;;;;4989398;28;19909;-78
2023/05/19 12:48:04;;;;;;;;;;;16.80;82.30;;;;;;4989262;28;19909;-78
2023/05/19 12:50:30;;;;;;;;;;;16.70;79.30;;;;;;4970702;28;19906;-78
2023/05/19 12:52:56;;;;;;;;;;;16.50;79.40;;;;;;4989213;28;20004;-77
2023/05/19 12:55:22;;;;;;;;;;;16.40;79.70;;;;;;4989316;28;19906;-77
2023/05/19 12:57:49;;;;;;;;;;;16.40;80.20;;;;;;4971592;28;19906;-79
2023/05/19 13:00:21;;;;;;;;;;;16.40;81.50;;;;;;4991937;28;19913;-77
2023/05/19 13:02:54;;;;;;;;;;;16.40;82.30;;;;;;4991637;28;19993;-77
2023/05/19 13:05:20;;;;;;;;;;;16.30;81.50;;;;;;4991637;28;19905;-78
2023/05/19 13:07:58;;;;;;;;;;;16.40;81.80;;;;;;4991032;28;19916;-77
2023/05/19 13:10:27;;;;;;;;;;;16.30;83.30;;;;;;4991327;28;20243;-76
2023/05/19 13:12:53;;;;;;;;;;;16.50;84.60;;;;;;4991900;28;19952;-77
2023/05/19 13:15:19;;;;;;;;;;;19.10;83.30;;;;;;4990648;28;19906;-78
2023/05/19 13:17:45;;;;;;;;;;;16.40;82.70;;;;;;4990889;28;19914;-78
2023/05/19 13:20:11;;;;;;;;;;;16.30;84.20;;;;;;4991050;28;19910;-79
2023/05/19 13:22:36;;;;;;;;;;;16.40;81.80;;;;;;4991109;28;20310;-77
2023/05/19 13:25:02;;;;;;;;;;;16.30;82.30;;;;;;4991038;28;19905;-79
2023/05/19 13:27:28;;;;;;;;;;;16.30;84.00;;;;;;4973409;28;19906;-78
2023/05/19 13:29:53;;;;;;;;;;;16.30;84.20;;;;;;4990537;28;20317;-78
2023/05/19 13:32:19;;;;;;;;;;;16.40;84.90;;;;;;4991259;28;19913;-78
2023/05/19 13:34:44;;;;;;;;;;;16.20;83.00;;;;;;4990732;28;19948;-78
2023/05/19 13:37:10;;;;;;;;;;;16.20;82.80;;;;;;4973731;28;20381;-78
2023/05/19 13:39:36;;;;;;;;;;;16.40;83.80;;;;;;4996127;28;19916;-79
2023/05/19 13:42:02;;;;;;;;;;;16.40;84.50;;;;;;4980895;28;20289;-78
2023/05/19 13:44:27;;;;;;;;;;;16.60;83.80;;;;;;4991460;28;19924;-78
2023/05/19 13:46:54;;;;;;;;;;;16.70;82.40;;;;;;4998078;28;20378;-81
2023/05/19 13:49:20;;;;;;;;;;;16.80;84.70;;;;;;4974997;28;19953;-79
2023/05/19 13:51:45;;;;;;;;;;;16.40;82.70;;;;;;4986523;28;19945;-78
2023/05/19 13:54:11;;;;;;;;;;;16.30;84.10;;;;;;4973433;28;19914;-79
2023/05/19 13:56:36;;;;;;;;;;;16.40;84.40;;;;;;4991845;28;20270;-78
2023/05/19 13:59:02;;;;;;;;;;;16.40;84.80;;;;;;4990814;28;19905;-78
2023/05/19 14:01:28;;;;;;;;;;;16.50;86.30;;;;;;4973424;28;20373;-79
2023/05/19 14:03:55;;;;;;;;;;;16.30;83.70;;;;;;4973213;28;19961;-78
2023/05/19 14:06:22;;;;;;;;;;;16.10;83.50;;;;;;4973337;28;20329;-78
2023/05/19 14:08:47;;;;;;;;;;;16.30;86.90;;;;;;4973671;28;19913;-78
2023/05/19 14:11:16;;;;;;;;;;;16.40;85.70;;;;;;4975770;28;20283;-78
2023/05/19 14:13:42;;;;;;;;;;;16.40;85.20;;;;;;4975236;28;19913;-78
2023/05/19 14:16:07;;;;;;;;;;;16.60;86.60;;;;;;4973356;28;19909;-79
2023/05/19 14:18:33;;;;;;;;;;;16.50;86.40;;;;;;4990131;28;19912;-78
2023/05/19 14:20:59;;;;;;;;;;;16.60;85.80;;;;;;4972479;28;19905;-78